Terminal Aerodrome Forecast
Issued by NWS Pittsburgh, PA

Current Version | Previous Version | Text Only | Print | Product List | Glossary Off
Versions: 1 2 3 4 5 6 7 8 9 10 11 12 13 14 15 16 17 18 19 20 21 22 23 24

797
FTUS41 KPBZ 261120
TAFPIT
TAF
KPIT 261120Z 2612/2718 25004KT P6SM SCT090
     FM261700 25011G21KT P6SM VCSH BKN050
     FM270000 27007KT P6SM BKN250
     FM270700 25004KT P6SM BKN050=

USA.gov is the U.S. government's official web portal to all federal, state and local government web resources and services.